Time;durP1;ratioP1;P1;durP2;ratioP2;P2;SDS_P1;SDS_P2;PMS_P1;PMS_P2;Temp;Humidity;BMP_temperature;BMP_pressure;BME280_temperature;BME280_humidity;BME280_pressure;Samples;Min_cycle;Max_cycle;Signal;HPM_P1;HPM_P2
2022/04/03 00:01:19;;;;;;;6.55;4.57;;;22.90;99.60;;;;;;5017133;28;20022;-66
2022/04/03 00:03:46;;;;;;;3.22;1.60;;;22.90;98.50;;;;;;5025501;28;20045;-71
2022/04/03 00:06:13;;;;;;;4.07;2.10;;;22.90;98.80;;;;;;5018618;28;20093;-66
2022/04/03 00:08:40;;;;;;;3.72;2.72;;;23.20;98.60;;;;;;5019811;28;20065;-68
2022/04/03 00:11:09;;;;;;;4.75;1.58;;;23.60;98.50;;;;;;5018946;28;20053;-66
2022/04/03 00:13:36;;;;;;;3.47;1.05;;;23.60;96.70;;;;;;5020329;28;20037;-66
2022/04/03 00:16:05;;;;;;;0.93;0.47;;;23.60;95.10;;;;;;5017319;28;20034;-65
2022/04/03 00:18:33;;;;;;;1.92;0.85;;;23.60;95.00;;;;;;5017857;28;20057;-67
2022/04/03 00:21:00;;;;;;;1.38;0.85;;;23.90;94.80;;;;;;5009786;28;20094;-67
2022/04/03 00:23:28;;;;;;;5.93;2.80;;;24.20;94.50;;;;;;5015140;28;20396;-64
2022/04/03 00:25:55;;;;;;;3.40;1.60;;;24.50;93.80;;;;;;5013271;28;20041;-64
2022/04/03 00:28:26;;;;;;;8.07;2.75;;;24.70;92.90;;;;;;5018878;28;20487;-67
2022/04/03 00:30:53;;;;;;;5.03;2.10;;;24.80;91.80;;;;;;5015609;28;20021;-65
2022/04/03 00:33:20;;;;;;;1.88;0.80;;;24.50;90.40;;;;;;5014364;28;20547;-70
2022/04/03 00:35:47;;;;;;;5.35;1.92;;;24.30;90.10;;;;;;5012661;28;20021;-70
2022/04/03 00:38:14;;;;;;;1.30;0.75;;;24.10;88.90;;;;;;5015242;28;20056;-64
2022/04/03 00:40:41;;;;;;;2.45;1.02;;;24.20;89.00;;;;;;5010084;28;20083;-64
2022/04/03 00:43:08;;;;;;;2.95;0.90;;;24.70;91.10;;;;;;5013171;28;20025;-67
2022/04/03 00:45:36;;;;;;;3.08;1.13;;;25.30;88.90;;;;;;5010926;28;20017;-66
2022/04/03 00:48:03;;;;;;;2.67;0.60;;;25.80;88.00;;;;;;5011779;28;20149;-65
2022/04/03 00:50:29;;;;;;;2.90;1.67;;;26.10;84.60;;;;;;5017155;28;20024;-71
2022/04/03 00:52:56;;;;;;;3.80;1.60;;;26.00;82.00;;;;;;5016340;28;20049;-67
2022/04/03 00:55:23;;;;;;;1.58;1.00;;;26.00;82.90;;;;;;5015835;28;20135;-65
2022/04/03 00:57:50;;;;;;;3.92;1.00;;;25.80;80.30;;;;;;5013695;28;20474;-67
2022/04/03 01:00:18;;;;;;;4.03;1.60;;;25.70;80.90;;;;;;5016075;28;20494;-64
2022/04/03 01:02:45;;;;;;;2.10;1.00;;;25.70;79.60;;;;;;5015188;28;20380;-66
2022/04/03 01:05:12;;;;;;;1.50;0.80;;;25.60;80.60;;;;;;5015407;28;20801;-64
2022/04/03 01:07:40;;;;;;;2.75;0.90;;;25.30;77.90;;;;;;5013714;28;20024;-68
2022/04/03 01:10:07;;;;;;;4.30;0.90;;;25.00;79.80;;;;;;5014332;28;20076;-68
2022/04/03 01:12:40;;;;;;;2.90;1.00;;;24.90;80.20;;;;;;5015682;28;20083;-68
2022/04/03 01:15:07;;;;;;;;;;;24.80;81.40;;;;;;5017111;28;20460;-65
2022/04/03 01:17:34;;;;;;;10.60;1.25;;;24.70;81.40;;;;;;5016869;28;19913;-68
2022/04/03 01:20:01;;;;;;;4.20;0.93;;;24.80;81.30;;;;;;5016225;28;20184;-69
2022/04/03 01:22:28;;;;;;;3.13;1.60;;;24.70;81.40;;;;;;5016089;28;20033;-65
2022/04/03 01:24:58;;;;;;;1.92;1.10;;;24.80;81.10;;;;;;5016986;28;20029;-64
2022/04/03 01:27:26;;;;;;;2.15;1.10;;;24.90;80.30;;;;;;5015795;28;20053;-68
2022/04/03 01:29:53;;;;;;;1.35;0.70;;;24.90;81.60;;;;;;5018420;28;20041;-70
2022/04/03 01:32:21;;;;;;;5.25;1.10;;;25.00;82.30;;;;;;5018249;28;20029;-69
2022/04/03 01:34:47;;;;;;;2.63;1.70;;;24.90;81.70;;;;;;5018548;28;20038;-67
2022/04/03 01:37:14;;;;;;;8.77;1.13;;;24.80;81.00;;;;;;5015999;28;20443;-68
2022/04/03 01:39:42;;;;;;;2.85;1.02;;;25.10;81.50;;;;;;5018945;28;20079;-69
2022/04/03 01:42:09;;;;;;;3.60;1.00;;;25.20;80.50;;;;;;5018661;28;20551;-67
2022/04/03 01:44:36;;;;;;;2.08;1.05;;;25.60;81.70;;;;;;5018711;28;20128;-68
2022/04/03 01:47:03;;;;;;;3.45;0.75;;;25.70;78.80;;;;;;5014452;28;20029;-69
2022/04/03 01:49:30;;;;;;;2.35;0.80;;;25.80;78.90;;;;;;5018876;28;20080;-69
2022/04/03 01:51:58;;;;;;;5.20;1.52;;;25.80;78.90;;;;;;5019357;28;20027;-68
2022/04/03 01:54:24;;;;;;;3.10;1.33;;;25.80;77.80;;;;;;5015243;28;20032;-69
2022/04/03 01:56:51;;;;;;;2.97;1.10;;;26.00;78.10;;;;;;5023562;28;20033;-69
2022/04/03 01:59:18;;;;;;;3.83;1.35;;;26.10;77.50;;;;;;5023239;28;20127;-69
2022/04/03 02:01:46;;;;;;;4.25;1.30;;;26.20;78.10;;;;;;5024236;28;20455;-67
2022/04/03 02:04:13;;;;;;;7.05;0.98;;;26.60;78.10;;;;;;5024681;28;20033;-67
2022/04/03 02:06:41;;;;;;;2.72;1.10;;;26.80;76.60;;;;;;5020461;28;20038;-69
2022/04/03 02:09:08;;;;;;;2.22;0.90;;;27.00;76.20;;;;;;5023838;28;20411;-69
2022/04/03 02:11:36;;;;;;;2.80;0.93;;;26.90;74.40;;;;;;5024364;28;20074;-70
2022/04/03 02:14:05;;;;;;;5.78;1.00;;;26.90;75.80;;;;;;5024367;28;20025;-71
2022/04/03 02:16:32;;;;;;;2.40;0.90;;;27.00;76.40;;;;;;5024328;28;20021;-69
2022/04/03 02:18:59;;;;;;;2.55;1.00;;;27.00;74.40;;;;;;5024206;28;20131;-68
2022/04/03 02:21:26;;;;;;;4.22;1.20;;;27.10;73.50;;;;;;5021360;28;20571;-69
2022/04/03 02:23:53;;;;;;;3.53;0.98;;;26.90;74.40;;;;;;5020368;28;20018;-73
2022/04/03 02:26:20;;;;;;;2.92;0.93;;;27.20;75.00;;;;;;5020286;28;20029;-71
2022/04/03 02:28:47;;;;;;;3.60;0.80;;;27.30;75.00;;;;;;5020987;28;20021;-74
2022/04/03 02:31:14;;;;;;;7.32;1.25;;;27.00;73.40;;;;;;5033019;28;20645;-70
2022/04/03 02:33:41;;;;;;;1.90;0.93;;;26.90;74.70;;;;;;5020452;28;20026;-73
2022/04/03 02:36:08;;;;;;;2.80;1.00;;;27.20;74.40;;;;;;5020949;28;20032;-70
2022/04/03 02:38:35;;;;;;;3.17;1.25;;;27.20;74.50;;;;;;5023473;28;20045;-72
2022/04/03 02:41:02;;;;;;;3.70;1.10;;;27.30;71.00;;;;;;5023474;28;20512;-76
2022/04/03 02:43:29;;;;;;;3.35;1.45;;;27.20;73.90;;;;;;5022468;28;20124;-73
2022/04/03 02:45:56;;;;;;;3.47;0.88;;;27.40;74.50;;;;;;5024987;28;20032;-70
2022/04/03 02:48:23;;;;;;;3.30;1.08;;;27.40;72.70;;;;;;5023734;28;20021;-68
2022/04/03 02:50:50;;;;;;;2.70;0.95;;;27.70;73.60;;;;;;5025956;28;20579;-72
2022/04/03 02:53:17;;;;;;;2.50;0.90;;;27.70;74.60;;;;;;5025517;28;20033;-68
2022/04/03 02:55:44;;;;;;;1.40;0.82;;;27.20;71.10;;;;;;5025391;28;20369;-68
2022/04/03 02:58:11;;;;;;;2.55;0.95;;;26.80;73.90;;;;;;5023428;28;20528;-73
2022/04/03 03:00:38;;;;;;;3.72;1.08;;;26.80;74.20;;;;;;5023284;28;20091;-70
2022/04/03 03:03:07;;;;;;;2.90;0.90;;;27.10;74.60;;;;;;5026277;28;20495;-72
2022/04/03 03:05:34;;;;;;;1.90;1.08;;;27.30;73.50;;;;;;5022556;28;20348;-70
2022/04/03 03:08:01;;;;;;;4.80;1.30;;;27.50;73.20;;;;;;5019175;28;20100;-69
2022/04/03 03:10:28;;;;;;;3.45;1.38;;;27.70;72.00;;;;;;5024401;28;20030;-72
2022/04/03 03:12:55;;;;;;;4.25;1.52;;;28.00;71.40;;;;;;5023621;28;20117;-67
2022/04/03 03:15:23;;;;;;;3.70;0.90;;;27.90;72.20;;;;;;5023194;28;20030;-69
2022/04/03 03:17:50;;;;;;;3.58;0.80;;;27.70;70.60;;;;;;5024193;28;20024;-68
2022/04/03 03:20:17;;;;;;;3.10;1.20;;;27.30;71.30;;;;;;5024322;28;20084;-66
2022/04/03 03:22:44;;;;;;;2.88;0.80;;;27.40;70.20;;;;;;5024458;28;20018;-69
2022/04/03 03:25:11;;;;;;;2.28;1.17;;;27.40;71.80;;;;;;5023085;28;20025;-69
2022/04/03 03:27:39;;;;;;;3.00;1.00;;;27.70;71.20;;;;;;5023018;28;20052;-68
2022/04/03 03:30:07;;;;;;;5.00;0.90;;;28.00;70.40;;;;;;5024045;28;20543;-67
2022/04/03 03:32:35;;;;;;;1.70;0.90;;;28.10;71.70;;;;;;5024675;28;20033;-67
2022/04/03 03:35:02;;;;;;;1.10;0.75;;;28.30;69.60;;;;;;5023588;28;20175;-67
2022/04/03 03:37:29;;;;;;;1.48;0.77;;;28.50;69.60;;;;;;5020464;28;20180;-66
2022/04/03 03:39:57;;;;;;;1.58;0.65;;;28.60;69.10;;;;;;5023512;28;20033;-67
2022/04/03 03:42:25;;;;;;;3.15;1.17;;;28.80;70.90;;;;;;5023883;28;20364;-65
2022/04/03 03:44:52;;;;;;;4.07;1.20;;;29.00;68.20;;;;;;5022144;28;20500;-67
2022/04/03 03:47:20;;;;;;;1.83;0.60;;;28.40;68.10;;;;;;5023743;28;20022;-68
2022/04/03 03:49:47;;;;;;;3.25;1.00;;;28.10;67.60;;;;;;5024713;28;20400;-67
2022/04/03 03:52:14;;;;;;;2.10;0.80;;;27.80;70.00;;;;;;5025970;28;20037;-68
2022/04/03 03:54:41;;;;;;;4.00;1.10;;;27.70;69.10;;;;;;5021415;28;20028;-68
2022/04/03 03:57:09;;;;;;;2.92;1.20;;;27.70;70.40;;;;;;5023778;28;20579;-68
2022/04/03 03:59:36;;;;;;;1.38;0.90;;;28.10;69.70;;;;;;5022191;28;20026;-70
2022/04/03 04:02:03;;;;;;;4.72;1.20;;;28.30;67.80;;;;;;5023413;28;20033;-70
2022/04/03 04:04:30;;;;;;;2.08;1.13;;;28.60;67.30;;;;;;5022720;28;20113;-64
2022/04/03 04:06:57;;;;;;;3.33;0.88;;;28.80;66.30;;;;;;5022049;28;20409;-64
2022/04/03 04:09:25;;;;;;;3.13;1.08;;;28.80;63.80;;;;;;5037069;28;20365;-68
2022/04/03 04:11:52;;;;;;;4.07;1.02;;;28.60;65.60;;;;;;5022237;28;20033;-68
2022/04/03 04:14:18;;;;;;;1.65;0.73;;;28.60;64.40;;;;;;5023939;28;20029;-64
2022/04/03 04:16:46;;;;;;;2.75;0.82;;;28.60;64.20;;;;;;5020812;28;20065;-65
2022/04/03 04:19:15;;;;;;;3.55;1.20;;;28.40;62.80;;;;;;5021904;28;20040;-66
2022/04/03 04:21:42;;;;;;;1.85;0.70;;;28.30;61.80;;;;;;5021010;28;20480;-70
2022/04/03 04:24:10;;;;;;;2.47;0.80;;;28.30;63.00;;;;;;5021799;28;20053;-64
2022/04/03 04:26:37;;;;;;;4.65;0.88;;;28.40;63.00;;;;;;5022324;28;20014;-71
2022/04/03 04:29:04;;;;;;;2.13;0.90;;;28.40;62.90;;;;;;5022913;28;20060;-70
2022/04/03 04:31:31;;;;;;;2.28;0.80;;;28.60;62.20;;;;;;5024928;28;20040;-68
2022/04/03 04:33:58;;;;;;;4.35;1.00;;;28.60;61.40;;;;;;5023786;28;20028;-66
2022/04/03 04:36:26;;;;;;;2.42;1.02;;;28.60;60.50;;;;;;5005077;28;20040;-69
2022/04/03 04:38:54;;;;;;;5.50;1.33;;;28.60;60.60;;;;;;5025688;28;20369;-66
2022/04/03 04:41:21;;;;;;;4.53;1.20;;;28.60;60.30;;;;;;5021262;28;20060;-68
2022/04/03 04:43:48;;;;;;;3.22;0.98;;;28.60;60.20;;;;;;5024032;28;20570;-65
2022/04/03 04:46:15;;;;;;;2.45;0.80;;;28.50;59.70;;;;;;5022896;28;20021;-68
2022/04/03 04:48:41;;;;;;;2.63;1.08;;;28.40;59.80;;;;;;5026015;28;20547;-70
2022/04/03 04:51:09;;;;;;;1.77;1.17;;;28.30;59.90;;;;;;5024750;28;20037;-70
2022/04/03 04:53:36;;;;;;;2.20;1.10;;;28.10;60.10;;;;;;5024442;28;20037;-66
2022/04/03 04:56:03;;;;;;;2.53;1.00;;;27.90;60.70;;;;;;5022329;28;20621;-70
2022/04/03 04:58:30;;;;;;;3.45;1.08;;;27.90;59.00;;;;;;5021052;28;20642;-69
2022/04/03 05:00:57;;;;;;;2.97;1.15;;;27.80;60.70;;;;;;5024184;28;20148;-69
2022/04/03 05:03:24;;;;;;;4.13;1.58;;;27.80;60.00;;;;;;5024738;28;20028;-70
2022/04/03 05:05:51;;;;;;;2.47;1.05;;;27.70;59.90;;;;;;5023166;28;20018;-69
2022/04/03 05:08:19;;;;;;;2.85;1.08;;;27.80;59.80;;;;;;5023349;28;20396;-69
2022/04/03 05:10:46;;;;;;;2.75;1.10;;;27.80;60.20;;;;;;5022545;28;20167;-69
2022/04/03 05:13:13;;;;;;;3.30;1.42;;;27.90;60.20;;;;;;5029533;28;20033;-69
2022/04/03 05:15:40;;;;;;;2.63;1.20;;;27.80;60.40;;;;;;5024855;28;20022;-70
2022/04/03 05:18:07;;;;;;;3.78;1.30;;;27.90;60.90;;;;;;5022263;28;20079;-70
2022/04/03 05:20:34;;;;;;;3.80;1.10;;;27.70;61.00;;;;;;5024779;28;20045;-67
2022/04/03 05:23:01;;;;;;;5.32;1.13;;;27.70;60.40;;;;;;5023426;28;20025;-67
2022/04/03 05:25:28;;;;;;;2.78;1.27;;;27.40;59.10;;;;;;5023083;28;20056;-67
2022/04/03 05:27:56;;;;;;;4.30;1.10;;;27.20;59.70;;;;;;5022094;28;20040;-66
2022/04/03 05:30:23;;;;;;;2.50;1.33;;;27.10;59.10;;;;;;5025752;28;20033;-68
2022/04/03 05:32:50;;;;;;;2.13;1.13;;;26.90;60.60;;;;;;5025950;28;20099;-69
2022/04/03 05:35:17;;;;;;;3.08;1.30;;;26.90;61.10;;;;;;5029657;28;20068;-67
2022/04/03 05:37:44;;;;;;;4.95;1.55;;;27.00;59.80;;;;;;5027389;28;20042;-69
2022/04/03 05:40:15;;;;;;;5.10;1.40;;;27.00;60.60;;;;;;5024051;28;20950;-70
2022/04/03 05:42:42;;;;;;;4.15;1.52;;;27.10;60.70;;;;;;5025814;28;20043;-69
2022/04/03 05:45:09;;;;;;;4.18;1.30;;;27.00;61.40;;;;;;5025344;28;20030;-69
2022/04/03 05:47:37;;;;;;;2.70;1.63;;;27.00;60.40;;;;;;5025890;28;20108;-71
2022/04/03 05:50:05;;;;;;;3.17;1.23;;;27.00;62.10;;;;;;5025151;28;20029;-67
2022/04/03 05:52:47;;;;;;;5.68;2.22;;;27.00;60.50;;;;;;5024995;28;20506;-66
2022/04/03 05:55:16;;;;;;;3.20;1.25;;;26.90;62.20;;;;;;5025877;28;20377;-68
2022/04/03 05:57:44;;;;;;;2.75;1.27;;;26.90;61.80;;;;;;5025819;28;20547;-70
2022/04/03 06:00:13;;;;;;;4.30;1.88;;;26.90;61.60;;;;;;5025461;28;20036;-67
2022/04/03 06:02:50;;;;;;;4.45;1.58;;;26.80;60.10;;;;;;5025431;28;20033;-67
2022/04/03 06:05:35;;;;;;;2.65;1.80;;;26.70;60.00;;;;;;5024845;28;20484;-70
2022/04/03 06:08:03;;;;;;;3.20;1.80;;;26.60;61.70;;;;;;5025582;28;20085;-68
2022/04/03 06:10:31;;;;;;;5.65;2.25;;;26.40;62.00;;;;;;5026986;28;20232;-71
2022/04/03 06:13:06;;;;;;;2.42;1.63;;;26.30;62.10;;;;;;5025457;28;20088;-71
2022/04/03 06:15:36;;;;;;;4.88;1.95;;;26.30;63.40;;;;;;5025468;28;20013;-69
2022/04/03 06:18:05;;;;;;;4.38;1.92;;;26.20;63.80;;;;;;5025107;28;20143;-69
2022/04/03 06:20:33;;;;;;;3.03;1.63;;;26.10;63.90;;;;;;5027933;28;20076;-67
2022/04/03 06:23:01;;;;;;;3.33;1.67;;;26.10;64.00;;;;;;5024083;28;20025;-70
2022/04/03 06:25:28;;;;;;;5.97;2.67;;;26.00;63.60;;;;;;5026993;28;20021;-68
2022/04/03 06:27:55;;;;;;;4.90;2.80;;;25.90;64.40;;;;;;5027976;28;20129;-68
2022/04/03 06:30:23;;;;;;;4.72;2.50;;;25.80;64.60;;;;;;5024244;28;20026;-68
2022/04/03 06:32:50;;;;;;;2.92;1.52;;;25.70;65.20;;;;;;5027935;28;20503;-69
2022/04/03 06:35:17;;;;;;;3.63;1.70;;;25.70;65.30;;;;;;5025526;28;20034;-67
2022/04/03 06:37:44;;;;;;;4.75;1.95;;;25.70;65.20;;;;;;5026924;28;20102;-71
2022/04/03 06:40:11;;;;;;;3.03;1.80;;;25.70;66.30;;;;;;5025563;28;20433;-67
2022/04/03 06:42:38;;;;;;;4.25;1.80;;;25.60;67.10;;;;;;5026302;28;20033;-70
2022/04/03 06:45:06;;;;;;;3.35;1.85;;;25.40;66.30;;;;;;5026950;28;20028;-67
2022/04/03 06:47:33;;;;;;;2.95;1.42;;;25.50;66.90;;;;;;5027952;28;20108;-70
2022/04/03 06:50:00;;;;;;;4.78;1.90;;;25.50;67.70;;;;;;5026783;28;20213;-70
2022/04/03 06:52:27;;;;;;;4.05;1.75;;;25.40;67.00;;;;;;5028022;28;20079;-70
2022/04/03 06:54:55;;;;;;;2.97;2.25;;;25.30;68.50;;;;;;5025637;28;20029;-67
2022/04/03 06:57:22;;;;;;;8.70;1.70;;;25.20;68.20;;;;;;5025572;28;20112;-71
2022/04/03 06:59:49;;;;;;;4.47;1.80;;;25.20;68.80;;;;;;5025324;28;20078;-67
2022/04/03 07:02:16;;;;;;;5.25;2.10;;;25.10;70.70;;;;;;5025077;28;20116;-71
2022/04/03 07:04:43;;;;;;;4.53;1.85;;;24.90;69.60;;;;;;5024547;28;20032;-72
2022/04/03 07:07:10;;;;;;;5.05;2.00;;;24.80;70.00;;;;;;5028689;28;20025;-70
2022/04/03 07:09:41;;;;;;;3.83;1.77;;;24.70;70.90;;;;;;5023692;28;20025;-67
2022/04/03 07:12:10;;;;;;;4.32;2.28;;;24.60;73.90;;;;;;5024455;28;20531;-68
2022/04/03 07:14:38;;;;;;;3.50;2.25;;;24.40;73.40;;;;;;5024169;28;20025;-70
2022/04/03 07:17:05;;;;;;;6.93;2.67;;;24.40;73.40;;;;;;5029208;28;20120;-69
2022/04/03 07:19:33;;;;;;;4.03;2.35;;;24.20;74.10;;;;;;5027324;28;20036;-70
2022/04/03 07:22:00;;;;;;;4.40;2.53;;;24.20;74.80;;;;;;5027068;28;20037;-67
2022/04/03 07:24:27;;;;;;;3.97;2.00;;;24.30;75.50;;;;;;5027426;28;20095;-69
2022/04/03 07:26:54;;;;;;;6.80;3.45;;;24.50;75.10;;;;;;5026542;28;20599;-69
2022/04/03 07:29:22;;;;;;;5.35;4.10;;;24.60;75.10;;;;;;5026259;28;20025;-66
2022/04/03 07:31:53;;;;;;;7.88;4.13;;;25.10;74.00;;;;;;5025988;28;20116;-70
2022/04/03 07:34:20;;;;;;;5.70;2.33;;;25.30;73.90;;;;;;5024292;28;20033;-67
2022/04/03 07:36:47;;;;;;;5.18;2.30;;;25.30;72.90;;;;;;5025078;28;20462;-69
2022/04/03 07:39:15;;;;;;;5.43;2.25;;;25.20;74.10;;;;;;5025502;28;20299;-70
2022/04/03 07:41:42;;;;;;;5.40;2.00;;;25.00;75.20;;;;;;5023888;28;20029;-71
2022/04/03 07:44:11;;;;;;;6.45;5.57;;;24.60;75.80;;;;;;5023590;28;20360;-69
2022/04/03 07:46:38;;;;;;;4.45;3.95;;;24.40;77.70;;;;;;5025678;28;20024;-70
2022/04/03 07:49:05;;;;;;;4.45;3.40;;;24.10;78.10;;;;;;5017014;28;20152;-70
2022/04/03 07:51:33;;;;;;;4.07;2.42;;;23.80;79.20;;;;;;5022022;28;20025;-69
2022/04/03 07:54:00;;;;;;;4.53;2.13;;;23.60;79.40;;;;;;5025232;28;20056;-70
2022/04/03 07:56:27;;;;;;;3.22;1.85;;;23.40;80.00;;;;;;5022092;28;20104;-71
2022/04/03 07:58:54;;;;;;;3.42;2.13;;;23.30;80.80;;;;;;5024011;28;20040;-69
2022/04/03 08:01:21;;;;;;;6.82;5.60;;;23.10;81.70;;;;;;5023887;28;20034;-68
2022/04/03 08:03:48;;;;;;;7.93;4.30;;;23.00;82.40;;;;;;5023366;28;20996;-69
2022/04/03 08:06:16;;;;;;;6.22;3.00;;;22.90;82.70;;;;;;5018829;28;20480;-68
2022/04/03 08:08:43;;;;;;;4.97;2.08;;;22.80;83.20;;;;;;5026001;28;20021;-67
2022/04/03 08:11:10;;;;;;;2.72;1.95;;;22.70;84.30;;;;;;5021198;28;20524;-70
2022/04/03 08:13:37;;;;;;;2.97;1.70;;;22.60;84.50;;;;;;5021740;28;20403;-67
2022/04/03 08:16:04;;;;;;;4.43;2.00;;;22.50;85.20;;;;;;5020726;28;20029;-69
2022/04/03 08:18:31;;;;;;;5.22;1.98;;;22.50;85.40;;;;;;5022919;28;20026;-69
2022/04/03 08:20:58;;;;;;;9.23;6.63;;;22.40;86.60;;;;;;5019695;28;20472;-65
2022/04/03 08:23:25;;;;;;;5.15;3.33;;;22.30;87.00;;;;;;5021411;28;20428;-65
2022/04/03 08:25:52;;;;;;;5.30;3.95;;;22.10;87.30;;;;;;5021978;28;20017;-68
2022/04/03 08:28:19;;;;;;;7.53;5.90;;;22.00;87.70;;;;;;5021588;28;20079;-66
2022/04/03 08:30:46;;;;;;;3.25;2.30;;;21.80;88.30;;;;;;5025214;28;20032;-68
2022/04/03 08:33:13;;;;;;;5.63;2.22;;;21.80;88.50;;;;;;5023998;28;20018;-67
2022/04/03 08:35:40;;;;;;;4.18;1.90;;;21.70;89.60;;;;;;5021939;28;20018;-69
2022/04/03 08:38:10;;;;;;;3.72;1.80;;;21.60;89.30;;;;;;5021121;28;20500;-64
2022/04/03 08:40:37;;;;;;;3.20;1.60;;;21.50;90.00;;;;;;5019600;28;20021;-70
2022/04/03 08:43:05;;;;;;;4.35;1.75;;;21.50;89.70;;;;;;5020109;28;20082;-68
2022/04/03 08:45:32;;;;;;;3.10;1.55;;;21.50;90.90;;;;;;5021012;28;20515;-70
2022/04/03 08:48:01;;;;;;;5.30;1.75;;;21.50;90.20;;;;;;5020906;28;20094;-69
2022/04/03 08:50:31;;;;;;;4.50;1.95;;;21.40;90.40;;;;;;5015768;28;20654;-68
2022/04/03 08:53:00;;;;;;;2.75;1.65;;;21.40;90.10;;;;;;5017451;28;20810;-76
2022/04/03 08:55:28;;;;;;;3.25;1.77;;;21.30;90.20;;;;;;5016324;28;20075;-72
2022/04/03 08:57:55;;;;;;;3.25;1.83;;;21.30;90.30;;;;;;5020307;28;20029;-72
2022/04/03 09:00:23;;;;;;;5.78;2.30;;;21.20;90.40;;;;;;5020784;28;20036;-73
2022/04/03 09:02:52;;;;;;;6.85;1.75;;;21.10;91.00;;;;;;5021972;28;20044;-75
2022/04/03 09:05:20;;;;;;;5.25;1.98;;;21.10;90.70;;;;;;5023644;28;20026;-71
2022/04/03 09:08:01;;;;;;;5.05;1.83;;;20.90;90.80;;;;;;5018879;28;20029;-68
2022/04/03 09:10:29;;;;;;;4.10;2.17;;;20.80;90.80;;;;;;5020168;28;20026;-71
2022/04/03 09:12:56;;;;;;;4.30;1.80;;;20.70;90.90;;;;;;5017330;28;20404;-69
2022/04/03 09:15:24;;;;;;;4.55;1.90;;;20.50;91.10;;;;;;5021669;28;20092;-71
2022/04/03 09:18:04;;;;;;;2.97;1.48;;;20.40;91.40;;;;;;5019425;28;20574;-63
2022/04/03 09:20:34;;;;;;;3.92;1.60;;;20.30;91.60;;;;;;5019208;28;20037;-64
2022/04/03 09:23:03;;;;;;;1.92;1.27;;;20.20;91.90;;;;;;5020391;28;20072;-62
2022/04/03 09:25:32;;;;;;;3.85;1.60;;;20.10;91.80;;;;;;5018659;28;20029;-62
2022/04/03 09:28:01;;;;;;;3.22;1.63;;;20.00;92.00;;;;;;5018551;28;20025;-65
2022/04/03 09:30:36;;;;;;;4.20;1.45;;;19.90;92.20;;;;;;5017819;28;20507;-71
2022/04/03 09:33:05;;;;;;;3.00;1.30;;;19.70;92.80;;;;;;5016834;28;20762;-64
2022/04/03 09:35:54;;;;;;;2.28;1.17;;;19.60;93.10;;;;;;5019351;28;20032;-69
2022/04/03 09:38:21;;;;;;;2.53;1.30;;;19.50;93.50;;;;;;4950626;28;20085;-71
2022/04/03 09:40:50;;;;;;;2.80;1.10;;;19.40;93.70;;;;;;4956976;28;20047;-68
2022/04/03 09:43:18;;;;;;;4.95;1.20;;;19.30;94.10;;;;;;4940582;28;20039;-65
2022/04/03 09:45:53;;;;;;;2.70;1.25;;;19.30;94.40;;;;;;4948044;28;20027;-65
2022/04/03 09:48:26;;;;;;;2.63;1.23;;;19.20;94.60;;;;;;4954714;28;20509;-65
2022/04/03 09:51:19;;;;;;;6.03;1.17;;;19.20;94.60;;;;;;4950952;28;20505;-68
2022/04/03 09:53:48;;;;;;;2.92;1.35;;;19.20;95.10;;;;;;4954324;28;20118;-69
2022/04/03 09:56:29;;;;;;;3.42;1.65;;;19.20;95.00;;;;;;4946959;28;20027;-65
2022/04/03 09:59:00;;;;;;;3.60;1.50;;;19.20;95.00;;;;;;4949065;28;20037;-64
2022/04/03 10:01:35;;;;;;;2.25;1.27;;;19.20;94.70;;;;;;4947834;28;20035;-64
2022/04/03 10:04:03;;;;;;;3.67;1.45;;;19.20;94.60;;;;;;4946090;28;20251;-63
2022/04/03 10:06:32;;;;;;;3.50;1.40;;;19.10;94.90;;;;;;4949258;28;20489;-63
2022/04/03 10:09:00;;;;;;;1.45;1.10;;;19.10;94.90;;;;;;4947669;28;20039;-65
2022/04/03 10:11:29;;;;;;;2.75;1.27;;;19.10;95.30;;;;;;4926744;28;20033;-63
2022/04/03 10:13:56;;;;;;;3.10;1.40;;;19.00;95.60;;;;;;4942665;28;20039;-63
2022/04/03 10:16:23;;;;;;;4.47;1.38;;;19.00;95.40;;;;;;5011963;28;20749;-64
2022/04/03 10:18:51;;;;;;;1.80;1.10;;;19.10;95.20;;;;;;5019992;28;20029;-66
2022/04/03 10:21:24;;;;;;;2.63;1.25;;;19.10;95.20;;;;;;5019202;28;20129;-62
2022/04/03 10:23:53;;;;;;;3.40;1.40;;;19.10;95.30;;;;;;5018621;28;20052;-62
2022/04/03 10:26:22;;;;;;;1.42;1.02;;;19.10;95.10;;;;;;5020247;28;20025;-61
2022/04/03 10:28:54;;;;;;;2.65;1.27;;;19.10;95.20;;;;;;5017621;28;20498;-62
2022/04/03 10:31:22;;;;;;;4.82;1.70;;;19.00;95.20;;;;;;5017980;28;20029;-67
2022/04/03 10:33:51;;;;;;;2.78;1.10;;;19.00;95.40;;;;;;5018535;28;20396;-64
2022/04/03 10:39:06;;;;;;;3.50;1.33;;;19.00;95.30;;;;;;5016972;28;20041;-62
2022/04/03 10:41:43;;;;;;;4.60;1.00;;;19.00;95.60;;;;;;5029749;28;20037;-64
2022/04/03 10:44:22;;;;;;;1.75;1.20;;;18.90;95.90;;;;;;5023628;28;20480;-63
2022/04/03 10:47:04;;;;;;;2.03;0.93;;;18.80;96.10;;;;;;5026177;28;20231;-63
2022/04/03 10:49:59;;;;;;;2.55;1.10;;;18.70;96.30;;;;;;5022981;28;20025;-68
2022/04/03 10:52:38;;;;;;;2.83;0.93;;;18.60;96.40;;;;;;5030395;28;20036;-66
2022/04/03 10:55:27;;;;;;;1.98;1.15;;;18.50;97.00;;;;;;5028500;28;20778;-67
2022/04/03 10:58:06;;;;;;;2.72;1.00;;;18.30;97.30;;;;;;5024137;28;20045;-65
2022/04/03 11:00:35;;;;;;;3.60;1.00;;;18.30;97.30;;;;;;5023500;28;20068;-64
2022/04/03 11:03:15;;;;;;;1.70;1.30;;;18.20;97.80;;;;;;5029415;28;20022;-70
2022/04/03 11:05:45;;;;;;;2.88;1.10;;;18.00;98.00;;;;;;5022895;28;20095;-69
2022/04/03 11:08:12;;;;;;;2.63;1.08;;;17.90;98.30;;;;;;5021518;28;20030;-68
2022/04/03 11:10:56;;;;;;;2.22;1.25;;;17.80;98.70;;;;;;5023159;28;20030;-64
2022/04/03 11:13:44;;;;;;;2.17;1.17;;;17.60;98.90;;;;;;5031343;28;20028;-68
2022/04/03 11:16:12;;;;;;;1.80;1.33;;;17.50;99.50;;;;;;5028751;28;20040;-68
2022/04/03 11:18:43;;;;;;;1.92;1.20;;;17.40;99.90;;;;;;5027446;28;20079;-66
2022/04/03 11:21:17;;;;;;;1.48;0.90;;;17.40;99.90;;;;;;5024644;28;20099;-67
2022/04/03 11:23:47;;;;;;;2.85;1.83;;;17.40;99.90;;;;;;5035647;28;20756;-68
2022/04/03 11:26:15;;;;;;;2.90;1.08;;;17.50;99.90;;;;;;5026477;28;20472;-68
2022/04/03 11:28:43;;;;;;;1.92;1.05;;;17.50;99.90;;;;;;5029678;28;20434;-68
2022/04/03 11:31:11;;;;;;;2.58;1.20;;;17.60;99.90;;;;;;5027663;28;20504;-62
2022/04/03 11:33:39;;;;;;;1.88;0.90;;;17.60;99.90;;;;;;5028023;28;20087;-62
2022/04/03 11:36:12;;;;;;;2.08;1.42;;;17.60;99.90;;;;;;5022384;28;20027;-66
2022/04/03 11:38:50;;;;;;;2.35;1.27;;;17.50;99.90;;;;;;5021256;28;20049;-66
2022/04/03 11:41:20;;;;;;;2.53;1.17;;;17.30;99.90;;;;;;5026556;28;20582;-62
2022/04/03 11:44:08;;;;;;;4.97;1.63;;;17.30;99.90;;;;;;5027468;28;20157;-61
2022/04/03 11:46:42;;;;;;;4.28;1.33;;;17.20;99.90;;;;;;5026316;28;20025;-66
2022/04/03 11:49:25;;;;;;;2.53;1.17;;;17.20;99.90;;;;;;5027737;28;20496;-62
2022/04/03 11:52:04;;;;;;;3.58;1.25;;;17.30;99.90;;;;;;5027770;28;20527;-64
2022/04/03 11:54:31;;;;;;;2.33;1.10;;;17.30;99.90;;;;;;5025769;28;20092;-63
2022/04/03 11:57:03;;;;;;;2.53;1.38;;;17.30;99.90;;;;;;5023926;28;20503;-65
2022/04/03 11:59:33;;;;;;;3.05;1.17;;;17.20;99.90;;;;;;5023217;28;20037;-68
2022/04/03 12:02:14;;;;;;;4.97;1.23;;;17.20;99.90;;;;;;5027024;28;20065;-68
2022/04/03 12:04:44;;;;;;;3.28;1.27;;;17.10;99.90;;;;;;5026162;28;20087;-68
2022/04/03 12:07:16;;;;;;;4.43;1.17;;;17.00;99.90;;;;;;5024378;28;21026;-63
2022/04/03 12:09:44;;;;;;;2.40;1.38;;;16.80;99.90;;;;;;5022577;28;20026;-67
2022/04/03 12:12:12;;;;;;;2.60;1.42;;;16.80;99.90;;;;;;5027263;28;20120;-68
2022/04/03 12:14:45;;;;;;;3.47;1.58;;;16.70;99.90;;;;;;5026051;28;20053;-67
2022/04/03 12:17:18;;;;;;;4.18;1.73;;;16.60;99.90;;;;;;5028690;28;20511;-67
2022/04/03 12:19:49;;;;;;;2.60;1.20;;;16.60;99.90;;;;;;5022613;28;20044;-62
2022/04/03 12:22:22;;;;;;;1.90;1.30;;;16.50;99.90;;;;;;5024969;28;20049;-68
2022/04/03 12:24:53;;;;;;;2.08;1.20;;;16.50;99.90;;;;;;5026961;28;20508;-62
2022/04/03 12:27:25;;;;;;;2.97;1.20;;;16.50;99.90;;;;;;5026307;28;20053;-68
2022/04/03 12:29:54;;;;;;;3.20;1.50;;;16.50;99.90;;;;;;5021555;28;20025;-62
2022/04/03 12:32:23;;;;;;;2.35;1.30;;;16.50;99.90;;;;;;5024463;28;20045;-67
2022/04/03 12:34:52;;;;;;;3.63;1.48;;;16.50;99.90;;;;;;5026101;28;20044;-67
2022/04/03 12:37:20;;;;;;;4.15;1.27;;;16.40;99.90;;;;;;5024234;28;20037;-67
2022/04/03 12:39:51;;;;;;;2.80;1.27;;;16.50;99.90;;;;;;5023425;28;20034;-63
2022/04/03 12:42:20;;;;;;;2.33;1.45;;;16.40;99.90;;;;;;5023015;28;20477;-62
2022/04/03 12:44:50;;;;;;;4.15;1.40;;;16.40;99.90;;;;;;5025418;28;20021;-62
2022/04/03 12:47:25;;;;;;;1.58;1.15;;;16.30;99.90;;;;;;5025393;28;20032;-67
2022/04/03 12:50:13;;;;;;;3.08;1.20;;;16.30;99.90;;;;;;5023698;28;20095;-62
2022/04/03 12:52:51;;;;;;;2.92;1.40;;;16.20;99.90;;;;;;4980913;28;20054;-67
2022/04/03 12:55:23;;;;;;;4.32;1.10;;;16.30;99.90;;;;;;4982577;28;20591;-67
2022/04/03 13:00:55;;;;;;;2.05;1.08;;;16.20;99.90;;;;;;4979419;28;20041;-66
2022/04/03 13:03:26;;;;;;;3.22;1.02;;;16.10;99.90;;;;;;4979959;28;20622;-63